Time;durP1;ratioP1;P1;durP2;ratioP2;P2;SDS_P1;SDS_P2;PMS_P1;PMS_P2;Temp;Humidity;BMP_temperature;BMP_pressure;BME280_temperature;BME280_humidity;BME280_pressure;Samples;Min_cycle;Max_cycle;Signal;HPM_P1;HPM_P2
2022/01/09 00:01:25;;;;;;;3.03;1.30;;;5.00;99.90;;;;;;5056973;28;20447;-64
2022/01/09 00:03:52;;;;;;;1.90;1.00;;;5.00;99.90;;;;;;5057501;28;20941;-63
2022/01/09 00:06:19;;;;;;;2.90;1.43;;;5.00;99.90;;;;;;5057749;28;20822;-63
2022/01/09 00:08:46;;;;;;;2.20;1.00;;;5.00;99.90;;;;;;5057799;28;20493;-63
2022/01/09 00:11:13;;;;;;;1.93;1.30;;;4.90;99.90;;;;;;5056425;28;20478;-63
2022/01/09 00:13:41;;;;;;;2.23;1.40;;;4.90;99.90;;;;;;5056966;28;20439;-64
2022/01/09 00:16:07;;;;;;;2.27;1.30;;;4.90;99.90;;;;;;5056723;28;20467;-63
2022/01/09 00:18:36;;;;;;;2.63;1.50;;;4.90;99.90;;;;;;5054399;28;20471;-64
2022/01/09 00:21:06;;;;;;;2.13;1.23;;;4.90;99.90;;;;;;5056540;28;20441;-63
2022/01/09 00:23:34;;;;;;;2.53;1.33;;;5.00;99.90;;;;;;5062552;28;20440;-63
2022/01/09 00:26:00;;;;;;;2.67;1.20;;;4.90;99.90;;;;;;5061668;28;20451;-63
2022/01/09 00:28:28;;;;;;;2.70;0.90;;;5.00;99.90;;;;;;5062224;28;20493;-66
2022/01/09 00:30:55;;;;;;;2.07;1.10;;;5.00;99.90;;;;;;5061703;28;20465;-63
2022/01/09 00:33:22;;;;;;;1.60;0.83;;;5.00;99.90;;;;;;5061907;28;20965;-63
2022/01/09 00:35:50;;;;;;;3.73;0.90;;;5.00;99.90;;;;;;5064282;28;20439;-63
2022/01/09 00:38:18;;;;;;;1.70;0.90;;;5.00;99.90;;;;;;5065415;28;20451;-63
2022/01/09 00:40:45;;;;;;;1.60;0.60;;;5.10;99.90;;;;;;5065621;28;20998;-63
2022/01/09 00:43:12;;;;;;;1.70;0.70;;;5.20;99.90;;;;;;5065515;28;20453;-63
2022/01/09 00:45:40;;;;;;;2.23;0.77;;;5.20;99.90;;;;;;5066089;28;20455;-63
2022/01/09 00:48:08;;;;;;;1.53;0.60;;;5.30;99.90;;;;;;5061223;28;20475;-63
2022/01/09 00:50:36;;;;;;;1.50;0.60;;;5.20;99.90;;;;;;5065141;28;20447;-62
2022/01/09 00:53:06;;;;;;;1.50;0.60;;;5.30;99.90;;;;;;5059530;28;20463;-62
2022/01/09 00:55:33;;;;;;;1.80;1.10;;;5.30;99.90;;;;;;5065598;28;20447;-63
2022/01/09 00:58:00;;;;;;;1.80;0.70;;;5.30;99.90;;;;;;5063689;28;20800;-62
2022/01/09 01:00:27;;;;;;;1.50;0.60;;;5.30;99.90;;;;;;5060931;28;20435;-63
2022/01/09 01:02:54;;;;;;;1.43;0.53;;;5.30;99.90;;;;;;5060956;28;20458;-64
2022/01/09 01:05:20;;;;;;;1.70;0.60;;;5.30;99.90;;;;;;5066411;28;20538;-63
2022/01/09 01:07:47;;;;;;;1.50;0.50;;;5.40;99.90;;;;;;5066754;28;20578;-63
2022/01/09 01:10:15;;;;;;;2.20;0.57;;;5.40;99.90;;;;;;5066698;28;20486;-68
2022/01/09 01:12:44;;;;;;;1.70;0.60;;;5.40;99.90;;;;;;5066472;28;20448;-63
2022/01/09 01:15:11;;;;;;;1.53;0.60;;;5.40;99.90;;;;;;5065461;28;20440;-63
2022/01/09 01:17:38;;;;;;;1.83;0.50;;;5.40;99.90;;;;;;5066605;28;20440;-63
2022/01/09 01:20:06;;;;;;;2.47;0.80;;;5.40;99.90;;;;;;5065535;28;20517;-63
2022/01/09 01:22:34;;;;;;;1.40;0.40;;;5.30;99.90;;;;;;5066188;28;20454;-63
2022/01/09 01:25:01;;;;;;;1.43;0.50;;;5.40;99.90;;;;;;5065217;28;20522;-62
2022/01/09 01:27:29;;;;;;;2.37;0.80;;;5.40;99.90;;;;;;5066898;28;20847;-64
2022/01/09 01:29:57;;;;;;;1.50;0.63;;;5.40;99.90;;;;;;5058675;28;20841;-63
2022/01/09 01:32:24;;;;;;;1.47;0.60;;;5.40;99.90;;;;;;5047848;28;20938;-63
2022/01/09 01:34:52;;;;;;;1.67;0.50;;;5.40;99.90;;;;;;5046723;28;20457;-64
2022/01/09 01:37:19;;;;;;;1.50;0.60;;;5.40;99.90;;;;;;5047799;28;20445;-64
2022/01/09 01:39:46;;;;;;;1.57;0.50;;;5.50;99.90;;;;;;5066847;28;20467;-63
2022/01/09 01:42:13;;;;;;;3.40;0.50;;;5.50;99.90;;;;;;5068209;28;20640;-64
2022/01/09 01:44:42;;;;;;;1.60;0.53;;;5.60;99.90;;;;;;5067451;28;20960;-64
2022/01/09 01:47:09;;;;;;;1.70;0.53;;;5.60;99.90;;;;;;5067190;28;20455;-64
2022/01/09 01:49:36;;;;;;;1.50;0.40;;;5.60;99.90;;;;;;5067555;28;20459;-63
2022/01/09 01:52:04;;;;;;;1.70;0.50;;;5.60;99.90;;;;;;5067237;28;20443;-63
2022/01/09 01:54:32;;;;;;;1.40;0.47;;;5.60;99.90;;;;;;5067766;28;20478;-64
2022/01/09 01:56:59;;;;;;;1.50;0.50;;;5.60;99.90;;;;;;5067398;28;20440;-63
2022/01/09 01:59:26;;;;;;;1.70;0.70;;;5.60;99.90;;;;;;5063937;28;20479;-64
2022/01/09 02:01:54;;;;;;;1.63;0.50;;;5.70;99.90;;;;;;5047290;28;20448;-64
2022/01/09 02:04:21;;;;;;;1.60;0.50;;;5.60;99.90;;;;;;5047850;28;20445;-63
2022/01/09 02:06:48;;;;;;;1.70;0.53;;;5.70;99.90;;;;;;5066893;28;20444;-65
2022/01/09 02:09:15;;;;;;;1.50;0.50;;;5.70;99.90;;;;;;5067896;28;20489;-63
2022/01/09 02:11:42;;;;;;;1.70;0.60;;;5.80;99.90;;;;;;5067420;28;20965;-63
2022/01/09 02:14:09;;;;;;;1.50;0.50;;;5.80;99.90;;;;;;5066935;28;20435;-64
2022/01/09 02:16:40;;;;;;;1.40;0.40;;;5.80;99.90;;;;;;5066852;28;20447;-65
2022/01/09 02:19:13;;;;;;;1.50;0.50;;;5.80;99.90;;;;;;5066602;28;21964;-65
2022/01/09 02:21:43;;;;;;;1.40;0.40;;;5.80;99.90;;;;;;5067058;28;20447;-64
2022/01/09 02:24:10;;;;;;;1.40;0.40;;;5.80;99.90;;;;;;5066785;28;20972;-65
2022/01/09 02:26:36;;;;;;;1.40;0.40;;;5.80;99.90;;;;;;5066670;28;20456;-65
2022/01/09 02:29:04;;;;;;;1.40;0.43;;;5.80;99.90;;;;;;5066824;28;20488;-65
2022/01/09 02:31:32;;;;;;;1.70;0.50;;;5.90;99.90;;;;;;5066494;28;20436;-64
2022/01/09 02:33:59;;;;;;;1.50;0.40;;;5.90;99.90;;;;;;5066560;28;20450;-63
2022/01/09 02:36:26;;;;;;;1.60;0.50;;;5.80;99.90;;;;;;5066363;28;20438;-64
2022/01/09 02:38:54;;;;;;;1.50;0.50;;;5.80;99.90;;;;;;5066841;28;20459;-63
2022/01/09 02:41:21;;;;;;;1.40;0.40;;;5.80;99.90;;;;;;5066605;28;20462;-63
2022/01/09 02:43:48;;;;;;;1.70;0.60;;;5.80;99.90;;;;;;5066393;28;20454;-64
2022/01/09 02:46:29;;;;;;;1.40;0.40;;;5.80;99.90;;;;;;5065850;28;20817;-66
2022/01/09 02:48:57;;;;;;;1.40;0.40;;;5.70;99.90;;;;;;5066512;28;20487;-64
2022/01/09 02:51:25;;;;;;;1.40;0.50;;;5.60;99.90;;;;;;5066548;28;20462;-64
2022/01/09 02:54:07;;;;;;;1.40;0.40;;;5.50;99.90;;;;;;5066667;28;21103;-64
2022/01/09 02:56:34;;;;;;;1.40;0.47;;;5.50;99.90;;;;;;5066135;28;20827;-65
2022/01/09 02:59:02;;;;;;;1.40;0.47;;;5.50;99.90;;;;;;5065802;28;20459;-65
2022/01/09 03:01:29;;;;;;;1.40;0.50;;;5.50;99.90;;;;;;5065901;28;20463;-64
2022/01/09 03:03:55;;;;;;;1.67;0.60;;;5.50;99.90;;;;;;5066277;28;20444;-63
2022/01/09 03:06:22;;;;;;;1.50;0.63;;;5.50;99.90;;;;;;5066223;28;20458;-63
2022/01/09 03:08:49;;;;;;;1.50;0.50;;;5.60;99.90;;;;;;5051135;28;20980;-65
2022/01/09 03:11:17;;;;;;;1.47;0.53;;;5.60;99.90;;;;;;5046324;28;20540;-63
2022/01/09 03:13:44;;;;;;;1.40;0.50;;;5.60;99.90;;;;;;5066515;28;20450;-64
2022/01/09 03:16:11;;;;;;;1.40;0.40;;;5.70;99.90;;;;;;5065681;28;20440;-64
2022/01/09 03:18:37;;;;;;;1.50;0.50;;;5.80;99.90;;;;;;5066080;28;20826;-63
2022/01/09 03:21:04;;;;;;;1.50;0.50;;;5.80;99.90;;;;;;5065869;28;20460;-63
2022/01/09 03:23:31;;;;;;;1.57;0.50;;;5.80;99.90;;;;;;5066174;28;20815;-63
2022/01/09 03:25:58;;;;;;;1.50;0.50;;;5.70;99.90;;;;;;5065687;28;20443;-64
2022/01/09 03:28:26;;;;;;;1.50;0.53;;;5.70;99.90;;;;;;5066056;28;21149;-63
2022/01/09 03:30:53;;;;;;;1.47;0.50;;;5.60;99.90;;;;;;5065996;28;20448;-64
2022/01/09 03:33:19;;;;;;;1.40;0.40;;;5.60;99.90;;;;;;5066147;28;20875;-63
2022/01/09 03:35:47;;;;;;;1.40;0.50;;;5.60;99.90;;;;;;5065819;28;20444;-64
2022/01/09 03:38:14;;;;;;;1.70;0.60;;;5.60;99.90;;;;;;5065862;28;20455;-65
2022/01/09 03:40:41;;;;;;;1.53;0.50;;;5.60;99.90;;;;;;5066029;28;20444;-63
2022/01/09 03:43:08;;;;;;;1.60;0.53;;;5.60;99.90;;;;;;5065841;28;20443;-65
2022/01/09 03:45:36;;;;;;;1.70;0.60;;;5.60;99.90;;;;;;5064483;28;20446;-63
2022/01/09 03:48:03;;;;;;;1.40;0.50;;;5.60;99.90;;;;;;5065857;28;20442;-63
2022/01/09 03:50:30;;;;;;;1.70;0.47;;;5.60;99.90;;;;;;5065809;28;20446;-64
2022/01/09 03:52:57;;;;;;;2.23;0.77;;;5.60;99.90;;;;;;5065317;28;20772;-63
2022/01/09 03:55:25;;;;;;;1.60;0.60;;;5.50;99.90;;;;;;5065602;28;20454;-64
2022/01/09 03:57:51;;;;;;;1.50;0.50;;;5.50;99.90;;;;;;5065489;28;20449;-64
2022/01/09 04:00:21;;;;;;;1.40;0.40;;;5.50;99.90;;;;;;5065681;28;20458;-64
2022/01/09 04:02:51;;;;;;;2.13;0.77;;;5.50;99.90;;;;;;5066046;28;21016;-64
2022/01/09 04:05:18;;;;;;;1.50;0.50;;;5.50;99.90;;;;;;5065356;28;20436;-64
2022/01/09 04:07:45;;;;;;;1.50;0.50;;;5.40;99.90;;;;;;5065879;28;20546;-64
2022/01/09 04:10:12;;;;;;;3.30;0.50;;;5.40;99.90;;;;;;5070428;28;20491;-64
2022/01/09 04:12:49;;;;;;;1.50;0.60;;;5.40;99.90;;;;;;5072371;28;21407;-64
2022/01/09 04:15:17;;;;;;;1.60;0.60;;;5.40;99.90;;;;;;5072248;28;20534;-63
2022/01/09 04:17:51;;;;;;;2.13;0.60;;;5.40;99.90;;;;;;5072161;28;20445;-64
2022/01/09 04:20:21;;;;;;;1.60;0.63;;;5.40;99.90;;;;;;5060429;28;20828;-63
2022/01/09 04:22:48;;;;;;;1.63;0.60;;;5.40;99.90;;;;;;5071952;28;20451;-63
2022/01/09 04:25:16;;;;;;;1.50;0.57;;;5.40;99.90;;;;;;5071667;28;20444;-62
2022/01/09 04:27:43;;;;;;;1.60;0.70;;;5.40;99.90;;;;;;5071928;28;20446;-63
2022/01/09 04:30:11;;;;;;;1.80;0.70;;;5.40;99.90;;;;;;5071917;28;20947;-63
2022/01/09 04:32:39;;;;;;;1.40;0.50;;;5.30;99.90;;;;;;5072188;28;20454;-64
2022/01/09 04:35:07;;;;;;;2.33;0.63;;;5.30;99.90;;;;;;5071942;28;20439;-63
2022/01/09 04:37:36;;;;;;;1.40;0.50;;;5.30;99.90;;;;;;5072100;28;20443;-63
2022/01/09 04:40:05;;;;;;;1.47;0.50;;;5.30;99.90;;;;;;5071619;28;20546;-63
2022/01/09 04:42:38;;;;;;;1.73;0.97;;;5.30;99.90;;;;;;5071775;28;20451;-63
2022/01/09 04:45:07;;;;;;;1.53;0.60;;;5.30;99.90;;;;;;5071921;28;21051;-63
2022/01/09 04:47:34;;;;;;;1.50;0.50;;;5.30;99.90;;;;;;5072258;28;20451;-63
2022/01/09 04:50:02;;;;;;;1.50;0.47;;;5.30;99.90;;;;;;5052802;28;20690;-61
2022/01/09 04:52:33;;;;;;;1.93;0.50;;;5.40;99.90;;;;;;5051967;28;20429;-63
2022/01/09 04:55:01;;;;;;;1.67;0.50;;;5.30;99.90;;;;;;5071498;28;20447;-63
2022/01/09 04:57:28;;;;;;;1.50;0.50;;;5.30;99.90;;;;;;5071631;28;20443;-63
2022/01/09 04:59:55;;;;;;;1.60;0.50;;;5.20;99.90;;;;;;5071813;28;20459;-63
2022/01/09 05:02:22;;;;;;;1.60;0.50;;;5.10;99.90;;;;;;5071682;28;20454;-59
2022/01/09 05:04:49;;;;;;;1.40;0.43;;;5.10;99.90;;;;;;5071763;28;20443;-62
2022/01/09 05:07:16;;;;;;;1.50;0.47;;;5.00;99.90;;;;;;5071950;28;20839;-63
2022/01/09 05:09:43;;;;;;;1.40;0.40;;;4.90;99.90;;;;;;5071378;28;20479;-63
2022/01/09 05:12:11;;;;;;;1.40;0.40;;;4.90;99.90;;;;;;5071873;28;21158;-63
2022/01/09 05:14:38;;;;;;;2.60;0.50;;;4.80;99.90;;;;;;5071819;28;20939;-64
2022/01/09 05:17:05;;;;;;;1.50;0.50;;;4.80;99.90;;;;;;5071812;28;20446;-64
2022/01/09 05:19:34;;;;;;;1.40;0.60;;;4.80;99.90;;;;;;5064577;28;20482;-65
2022/01/09 05:22:01;;;;;;;1.60;0.50;;;4.80;99.90;;;;;;5067792;28;20937;-64
2022/01/09 05:24:28;;;;;;;1.50;0.60;;;4.70;99.90;;;;;;5068128;28;20444;-64
2022/01/09 05:26:55;;;;;;;1.40;0.40;;;4.70;99.90;;;;;;5068059;28;20450;-64
2022/01/09 05:29:24;;;;;;;1.50;0.60;;;4.60;99.90;;;;;;5068490;28;20513;-62
2022/01/09 05:31:51;;;;;;;1.40;0.40;;;4.60;99.90;;;;;;5068804;28;20538;-62
2022/01/09 05:34:18;;;;;;;1.40;0.40;;;4.60;99.90;;;;;;5068585;28;20458;-63
2022/01/09 05:36:45;;;;;;;1.40;0.40;;;4.50;99.90;;;;;;5067971;28;20952;-64
2022/01/09 05:39:12;;;;;;;2.13;0.50;;;4.40;99.90;;;;;;5068514;28;20466;-64
2022/01/09 05:41:42;;;;;;;1.40;0.40;;;4.40;99.90;;;;;;5069205;28;20448;-66
2022/01/09 05:44:09;;;;;;;1.50;0.50;;;4.30;99.90;;;;;;5067970;28;20448;-63
2022/01/09 05:46:37;;;;;;;1.60;0.60;;;4.30;99.90;;;;;;5067951;28;20431;-65
2022/01/09 05:49:04;;;;;;;3.83;0.60;;;4.30;99.90;;;;;;5067672;28;20497;-63
2022/01/09 05:51:31;;;;;;;1.40;0.40;;;4.30;99.90;;;;;;5067759;28;20440;-65
2022/01/09 05:53:58;;;;;;;1.70;0.50;;;4.20;99.90;;;;;;5067667;28;20967;-63
2022/01/09 05:56:25;;;;;;;1.53;0.50;;;4.30;99.90;;;;;;5067297;28;21028;-62
2022/01/09 05:58:51;;;;;;;5.10;0.70;;;4.30;99.90;;;;;;5067402;28;20451;-63
2022/01/09 06:01:18;;;;;;;2.43;0.80;;;4.40;99.90;;;;;;5067703;28;21000;-64
2022/01/09 06:03:46;;;;;;;2.10;0.80;;;4.40;99.90;;;;;;5067599;28;20456;-64
2022/01/09 06:06:13;;;;;;;1.60;0.60;;;4.40;99.90;;;;;;5066912;28;20455;-63
2022/01/09 06:08:40;;;;;;;1.93;0.63;;;4.40;99.90;;;;;;5065429;28;20575;-64
2022/01/09 06:11:07;;;;;;;2.63;0.87;;;4.40;99.90;;;;;;5066989;28;20454;-64
2022/01/09 06:13:34;;;;;;;2.53;1.10;;;4.40;99.90;;;;;;5067460;28;20555;-65
2022/01/09 06:16:01;;;;;;;3.60;1.13;;;4.40;99.90;;;;;;5067025;28;20466;-64
2022/01/09 06:18:27;;;;;;;2.97;1.00;;;4.40;99.90;;;;;;5066717;28;21024;-64
2022/01/09 06:20:56;;;;;;;2.10;0.90;;;4.40;99.90;;;;;;5067185;28;20440;-65
2022/01/09 06:23:23;;;;;;;3.43;1.10;;;4.40;99.90;;;;;;5066560;28;20428;-66
2022/01/09 06:25:50;;;;;;;5.97;1.47;;;4.40;99.90;;;;;;5066461;28;20526;-64
2022/01/09 06:28:17;;;;;;;3.97;1.00;;;4.40;99.90;;;;;;5066150;28;20980;-62
2022/01/09 06:30:45;;;;;;;3.40;0.90;;;4.40;99.90;;;;;;5066383;28;20483;-66
2022/01/09 06:33:12;;;;;;;2.87;1.07;;;4.50;99.90;;;;;;5065050;28;20867;-64
2022/01/09 06:35:40;;;;;;;3.13;0.90;;;4.50;99.90;;;;;;5066375;28;20460;-66
2022/01/09 06:38:09;;;;;;;4.07;1.30;;;4.50;99.90;;;;;;5066462;28;20436;-64
2022/01/09 06:40:36;;;;;;;2.20;1.00;;;4.50;99.90;;;;;;5066233;28;20444;-64
2022/01/09 06:43:04;;;;;;;2.10;1.00;;;4.40;99.90;;;;;;5066264;28;20436;-65
2022/01/09 06:45:31;;;;;;;1.97;0.87;;;4.40;99.90;;;;;;5051106;28;20852;-64
2022/01/09 06:47:58;;;;;;;2.00;0.97;;;4.40;99.90;;;;;;5046309;28;20444;-64
2022/01/09 06:50:26;;;;;;;3.73;0.70;;;4.40;99.90;;;;;;5045833;28;20491;-64
2022/01/09 06:52:53;;;;;;;3.00;0.87;;;4.50;99.90;;;;;;5066563;28;20818;-64
2022/01/09 06:55:21;;;;;;;2.40;0.87;;;4.40;99.90;;;;;;5065616;28;20451;-66
2022/01/09 06:57:48;;;;;;;1.77;0.80;;;4.40;99.90;;;;;;5065908;28;20568;-64
2022/01/09 07:00:17;;;;;;;3.50;0.90;;;4.40;99.90;;;;;;5065503;28;20474;-63
2022/01/09 07:02:44;;;;;;;1.90;0.70;;;4.40;99.90;;;;;;5065574;28;20881;-64
2022/01/09 07:05:11;;;;;;;2.90;0.70;;;4.40;99.90;;;;;;5065607;28;20965;-64
2022/01/09 07:07:38;;;;;;;2.63;0.97;;;4.40;99.90;;;;;;5065882;28;20448;-63
2022/01/09 07:10:06;;;;;;;1.60;0.70;;;4.40;99.90;;;;;;5065627;28;20475;-64
2022/01/09 07:12:35;;;;;;;4.90;1.10;;;4.40;99.90;;;;;;5065530;28;20478;-63
2022/01/09 07:15:02;;;;;;;1.90;0.87;;;4.40;99.90;;;;;;5065406;28;20440;-64
2022/01/09 07:17:28;;;;;;;2.03;1.03;;;4.40;99.90;;;;;;5065372;28;20447;-63
2022/01/09 07:19:55;;;;;;;4.10;1.20;;;4.40;99.90;;;;;;5065508;28;20460;-63
2022/01/09 07:22:22;;;;;;;3.10;1.30;;;4.40;99.90;;;;;;5051510;28;20456;-63
2022/01/09 07:24:49;;;;;;;2.93;1.20;;;4.40;99.90;;;;;;5045164;28;20946;-63
2022/01/09 07:27:16;;;;;;;6.00;1.83;;;4.40;99.90;;;;;;5045739;28;20476;-63
2022/01/09 07:29:44;;;;;;;5.43;1.40;;;4.40;99.90;;;;;;5064049;28;20484;-63
2022/01/09 07:32:11;;;;;;;9.73;1.80;;;4.40;99.90;;;;;;5065753;28;20444;-62
2022/01/09 07:34:38;;;;;;;4.37;1.30;;;4.50;99.90;;;;;;5065084;28;21011;-63
2022/01/09 07:37:05;;;;;;;7.17;1.70;;;4.50;99.90;;;;;;5065333;28;20454;-63
2022/01/09 07:39:32;;;;;;;4.57;1.50;;;4.50;99.90;;;;;;5064862;28;20478;-64
2022/01/09 07:41:59;;;;;;;7.40;2.30;;;4.60;99.90;;;;;;5064458;28;20451;-63
2022/01/09 07:44:27;;;;;;;5.90;1.87;;;4.60;99.90;;;;;;5064922;28;20521;-63
2022/01/09 07:46:55;;;;;;;6.80;1.80;;;4.60;99.90;;;;;;5065307;28;20443;-64
2022/01/09 07:49:23;;;;;;;4.23;1.63;;;4.60;99.90;;;;;;5065166;28;20456;-64
2022/01/09 07:51:50;;;;;;;6.93;1.63;;;4.60;99.90;;;;;;5064975;28;20446;-63
2022/01/09 07:54:17;;;;;;;4.77;1.40;;;4.70;99.90;;;;;;5064972;28;20455;-64
2022/01/09 07:56:44;;;;;;;3.63;1.20;;;4.60;99.90;;;;;;5064415;28;20937;-61
2022/01/09 07:59:11;;;;;;;3.50;1.67;;;4.70;99.90;;;;;;5064915;28;20466;-64
2022/01/09 08:01:38;;;;;;;4.03;1.57;;;4.70;99.90;;;;;;5065006;28;20505;-63
2022/01/09 08:04:06;;;;;;;3.13;1.33;;;4.70;99.90;;;;;;5065053;28;20451;-64
2022/01/09 08:06:33;;;;;;;4.53;1.23;;;4.70;99.90;;;;;;5064723;28;21144;-63
2022/01/09 08:09:00;;;;;;;3.40;1.30;;;4.60;99.90;;;;;;5064331;28;20467;-63
2022/01/09 08:11:26;;;;;;;3.60;1.40;;;4.60;99.90;;;;;;5065017;28;20479;-64
2022/01/09 08:13:54;;;;;;;2.77;1.13;;;4.60;99.90;;;;;;5064881;28;20469;-63
2022/01/09 08:16:20;;;;;;;2.80;1.33;;;4.60;99.90;;;;;;5064785;28;20447;-64
2022/01/09 08:18:47;;;;;;;3.30;1.50;;;4.60;99.90;;;;;;5064550;28;21218;-64
2022/01/09 08:21:19;;;;;;;5.40;1.47;;;4.60;99.90;;;;;;5065044;28;20436;-64
2022/01/09 08:23:47;;;;;;;4.30;1.27;;;4.60;99.90;;;;;;5064642;28;21150;-64
2022/01/09 08:26:14;;;;;;;3.40;1.27;;;4.70;99.90;;;;;;5064742;28;20434;-64
2022/01/09 08:28:44;;;;;;;4.00;1.23;;;4.70;99.90;;;;;;5064882;28;20832;-64
2022/01/09 08:31:11;;;;;;;4.03;2.00;;;4.70;99.90;;;;;;5064258;28;21077;-64
2022/01/09 08:33:38;;;;;;;5.30;1.73;;;4.80;99.90;;;;;;5064556;28;20439;-63
2022/01/09 08:36:05;;;;;;;4.33;1.17;;;4.80;99.90;;;;;;5060239;28;20447;-64
2022/01/09 08:38:33;;;;;;;4.70;1.37;;;4.90;99.90;;;;;;5048342;28;20468;-62
2022/01/09 08:41:00;;;;;;;7.60;3.33;;;4.90;99.90;;;;;;5047620;28;20437;-64
2022/01/09 08:43:27;;;;;;;4.40;1.50;;;4.90;99.90;;;;;;5048374;28;20440;-63
2022/01/09 08:45:54;;;;;;;4.13;1.23;;;4.90;99.90;;;;;;5047919;28;20531;-65
2022/01/09 08:48:21;;;;;;;3.57;1.50;;;4.90;99.90;;;;;;5048345;28;20447;-64
2022/01/09 08:50:48;;;;;;;9.67;2.80;;;4.90;99.90;;;;;;5048405;28;21059;-64
2022/01/09 08:53:15;;;;;;;7.53;1.77;;;5.00;99.90;;;;;;5048404;28;20444;-65
2022/01/09 08:55:43;;;;;;;3.10;1.27;;;5.00;99.90;;;;;;5048692;28;20448;-64
2022/01/09 08:58:10;;;;;;;8.50;2.10;;;5.00;99.90;;;;;;5052069;28;20440;-63
2022/01/09 09:00:37;;;;;;;6.13;1.60;;;5.00;99.90;;;;;;5067082;28;20443;-63
2022/01/09 09:03:05;;;;;;;4.03;0.90;;;5.10;99.90;;;;;;5064119;28;20447;-64
2022/01/09 09:05:32;;;;;;;4.50;1.27;;;5.20;99.90;;;;;;5066099;28;20444;-63
2022/01/09 09:07:59;;;;;;;4.40;1.40;;;5.20;99.90;;;;;;5071332;28;20889;-64
2022/01/09 09:10:26;;;;;;;4.53;1.40;;;5.30;99.90;;;;;;5070669;28;20497;-64
2022/01/09 09:12:54;;;;;;;4.57;2.23;;;5.30;99.90;;;;;;5071538;28;20471;-64
2022/01/09 09:15:22;;;;;;;6.30;1.60;;;5.40;99.90;;;;;;5071289;28;20466;-63
2022/01/09 09:17:49;;;;;;;6.30;1.60;;;5.40;99.90;;;;;;5071698;28;20447;-63
2022/01/09 09:20:16;;;;;;;5.90;2.27;;;5.40;99.90;;;;;;5066988;28;20551;-63
2022/01/09 09:22:43;;;;;;;5.13;1.80;;;5.50;99.90;;;;;;5071681;28;20450;-63
2022/01/09 09:25:10;;;;;;;4.03;1.33;;;5.50;99.90;;;;;;5071500;28;20448;-63
2022/01/09 09:27:37;;;;;;;8.03;2.00;;;5.50;99.90;;;;;;5071884;28;20443;-64
2022/01/09 09:30:07;;;;;;;8.87;1.87;;;5.60;99.90;;;;;;5071265;28;20487;-62
2022/01/09 09:32:35;;;;;;;10.80;2.90;;;5.60;99.90;;;;;;5071658;28;20494;-64
2022/01/09 09:35:02;;;;;;;8.67;3.00;;;5.50;99.90;;;;;;5064629;28;20448;-63
2022/01/09 09:37:29;;;;;;;4.77;1.53;;;5.40;99.90;;;;;;5060906;28;20606;-64
2022/01/09 09:39:56;;;;;;;4.80;1.40;;;5.50;99.90;;;;;;5056943;28;20478;-63
2022/01/09 09:42:23;;;;;;;5.30;1.60;;;5.50;99.90;;;;;;5063255;28;20448;-64
2022/01/09 09:44:50;;;;;;;5.63;1.60;;;5.50;99.90;;;;;;5061795;28;20958;-62
2022/01/09 09:47:20;;;;;;;4.87;2.17;;;5.50;99.90;;;;;;5066988;28;20443;-63
2022/01/09 09:49:47;;;;;;;5.33;1.37;;;5.50;99.90;;;;;;5055312;28;20472;-64
2022/01/09 09:52:18;;;;;;;7.63;2.10;;;5.40;99.90;;;;;;5062646;28;20458;-64
2022/01/09 09:54:46;;;;;;;4.63;1.80;;;5.40;99.90;;;;;;5060911;28;20578;-65
2022/01/09 09:57:13;;;;;;;3.30;1.70;;;5.40;99.90;;;;;;5061937;28;20509;-64
2022/01/09 09:59:40;;;;;;;7.20;1.73;;;5.50;99.90;;;;;;5064146;28;20539;-64
2022/01/09 10:02:11;;;;;;;4.90;1.80;;;5.60;99.90;;;;;;5063998;28;20976;-65
2022/01/09 10:04:57;;;;;;;10.07;1.70;;;5.70;99.90;;;;;;5061772;28;20440;-64
2022/01/09 10:07:25;;;;;;;6.73;1.70;;;5.70;99.90;;;;;;5064561;28;20539;-63
2022/01/09 10:09:57;;;;;;;5.67;1.50;;;5.80;99.90;;;;;;5064538;28;20985;-64
2022/01/09 10:12:26;;;;;;;6.00;1.73;;;5.80;99.90;;;;;;5068216;28;20739;-64
2022/01/09 10:14:57;;;;;;;3.97;2.10;;;5.90;99.90;;;;;;5068264;28;20535;-63
2022/01/09 10:17:25;;;;;;;5.03;1.80;;;5.80;99.90;;;;;;5062173;28;20541;-64
2022/01/09 10:19:56;;;;;;;5.23;1.67;;;5.90;99.90;;;;;;5053119;28;20817;-64
2022/01/09 10:22:29;;;;;;;6.20;2.17;;;5.80;99.90;;;;;;5062597;28;20443;-64
2022/01/09 10:24:57;;;;;;;7.00;1.87;;;6.00;99.90;;;;;;5064988;28;20444;-65
2022/01/09 10:27:28;;;;;;;4.00;1.60;;;6.00;99.90;;;;;;5064132;28;20448;-65
2022/01/09 10:29:55;;;;;;;5.73;1.60;;;6.10;99.90;;;;;;5070128;28;20464;-65
2022/01/09 10:32:26;;;;;;;4.20;1.40;;;6.20;99.90;;;;;;5067336;28;20436;-66
2022/01/09 10:35:14;;;;;;;8.13;1.50;;;6.20;99.90;;;;;;5064470;28;20964;-65
2022/01/09 10:37:44;;;;;;;4.00;1.63;;;6.20;99.90;;;;;;5070172;28;20432;-64
2022/01/09 10:40:18;;;;;;;7.90;1.87;;;6.00;99.90;;;;;;5061867;28;20477;-65
2022/01/09 10:42:45;;;;;;;10.03;1.83;;;5.90;99.90;;;;;;5068411;28;20443;-65
2022/01/09 10:45:23;;;;;;;8.03;1.43;;;5.80;99.90;;;;;;5064458;28;20455;-65
2022/01/09 10:47:55;;;;;;;2.80;1.20;;;5.80;99.90;;;;;;5063978;28;20490;-64
2022/01/09 10:50:31;;;;;;;4.23;1.40;;;5.70;99.90;;;;;;5060330;28;21007;-63
2022/01/09 10:53:23;;;;;;;5.47;2.47;;;5.60;99.90;;;;;;5055364;28;20835;-66
2022/01/09 10:56:06;;;;;;;2.80;1.33;;;5.60;99.90;;;;;;5061701;28;20459;-65
2022/01/09 10:58:36;;;;;;;7.33;1.53;;;5.70;99.90;;;;;;5069618;28;20466;-66
2022/01/09 11:01:20;;;;;;;6.30;2.20;;;5.80;99.90;;;;;;5063323;28;20471;-64
2022/01/09 11:03:49;;;;;;;3.80;1.30;;;5.80;99.90;;;;;;5064244;28;20463;-65
2022/01/09 11:06:18;;;;;;;5.43;1.30;;;5.80;99.90;;;;;;5065666;28;20448;-64
2022/01/09 11:08:46;;;;;;;6.57;1.87;;;5.90;99.90;;;;;;5066046;28;20472;-64
2022/01/09 11:14:04;;;;;;;4.50;1.37;;;6.10;99.90;;;;;;5063447;28;20447;-64
2022/01/09 11:16:37;;;;;;;4.03;1.87;;;6.10;99.90;;;;;;5063724;28;20451;-64
2022/01/09 11:19:09;;;;;;;3.00;1.37;;;6.20;99.90;;;;;;5064180;28;20463;-64
2022/01/09 11:21:40;;;;;;;5.80;2.47;;;6.30;99.90;;;;;;5063643;28;20438;-64
2022/01/09 11:24:35;;;;;;;3.60;1.90;;;6.30;99.90;;;;;;5062147;28;20969;-65
2022/01/09 11:27:10;;;;;;;4.00;1.50;;;6.40;99.90;;;;;;5061770;28;20497;-64
2022/01/09 11:29:44;;;;;;;6.73;2.40;;;6.40;99.90;;;;;;5066858;28;20920;-64
2022/01/09 11:32:23;;;;;;;3.27;1.50;;;6.20;99.90;;;;;;5056791;28;20485;-65
2022/01/09 11:34:57;;;;;;;6.23;1.70;;;5.90;99.90;;;;;;5060684;28;20855;-64
2022/01/09 11:37:40;;;;;;;2.70;1.20;;;5.70;99.90;;;;;;5066809;28;20995;-64
2022/01/09 11:40:21;;;;;;;8.63;2.33;;;5.70;99.90;;;;;;5062906;28;20558;-65
2022/01/09 11:43:04;;;;;;;6.60;1.80;;;5.80;99.90;;;;;;5056251;28;20448;-64
2022/01/09 11:45:48;;;;;;;2.60;1.30;;;5.90;99.90;;;;;;5063075;28;20444;-64
2022/01/09 11:48:17;;;;;;;4.43;1.83;;;6.00;99.90;;;;;;5062614;28;20860;-65
2022/01/09 11:51:15;;;;;;;4.30;1.87;;;6.10;99.90;;;;;;5064338;28;20483;-65
2022/01/09 11:54:05;;;;;;;3.70;1.53;;;6.10;99.90;;;;;;5059799;28;20456;-63
2022/01/09 11:56:56;;;;;;;3.67;1.80;;;6.10;99.90;;;;;;5060962;28;20474;-65
2022/01/09 11:59:28;;;;;;;4.03;1.80;;;6.20;99.90;;;;;;5059451;28;20485;-66
2022/01/09 12:01:57;;;;;;;8.70;2.50;;;6.50;99.90;;;;;;5061597;28;20458;-67
2022/01/09 12:04:56;;;;;;;7.67;3.23;;;6.70;99.90;;;;;;5060546;28;20459;-67
2022/01/09 12:08:05;;;;;;;3.80;1.80;;;6.70;99.90;;;;;;5063916;28;20446;-66
2022/01/09 12:10:54;;;;;;;4.90;1.80;;;6.60;99.90;;;;;;5061930;28;20494;-65
2022/01/09 12:13:48;;;;;;;3.97;1.40;;;6.50;99.90;;;;;;5065345;28;20490;-64
2022/01/09 12:16:47;;;;;;;8.67;2.10;;;6.60;99.90;;;;;;5058999;28;20467;-64
2022/01/09 12:19:48;;;;;;;5.70;1.83;;;6.60;99.90;;;;;;5055285;28;21209;-64
2022/01/09 12:22:15;;;;;;;7.47;1.80;;;6.60;99.90;;;;;;5053636;28;20456;-64
2022/01/09 12:24:42;;;;;;;2.70;1.20;;;6.60;99.90;;;;;;5050008;28;20965;-64
2022/01/09 12:27:46;;;;;;;4.13;1.67;;;6.60;99.90;;;;;;5050112;28;20447;-64
2022/01/09 12:30:45;;;;;;;5.10;2.57;;;6.60;99.90;;;;;;5057113;28;20977;-65
2022/01/09 12:33:15;;;;;;;4.87;2.10;;;6.30;99.90;;;;;;5059192;28;20465;-65
2022/01/09 12:35:45;;;;;;;4.00;2.10;;;6.20;99.90;;;;;;5050244;28;20453;-64
2022/01/09 12:38:15;;;;;;;5.20;1.80;;;6.10;99.90;;;;;;5058958;28;20449;-64
2022/01/09 12:40:42;;;;;;;6.40;2.97;;;6.10;99.90;;;;;;5060071;28;20461;-65
2022/01/09 12:43:10;;;;;;;5.00;2.03;;;6.10;99.90;;;;;;5052138;28;20443;-65
2022/01/09 12:45:40;;;;;;;4.50;2.20;;;6.10;99.90;;;;;;5049148;28;20923;-65
2022/01/09 12:48:08;;;;;;;6.70;2.20;;;6.20;99.90;;;;;;5059523;28;20433;-65
2022/01/09 12:50:37;;;;;;;7.57;3.70;;;6.40;99.90;;;;;;5055436;28;20546;-65
2022/01/09 12:53:14;;;;;;;4.60;1.77;;;6.50;99.90;;;;;;5063313;28;21873;-70
2022/01/09 12:55:58;;;;;;;3.70;1.70;;;6.50;99.90;;;;;;5047086;28;20835;-64
2022/01/09 12:58:28;;;;;;;3.60;1.13;;;6.30;99.90;;;;;;5056595;28;20519;-65
2022/01/09 13:00:56;;;;;;;4.50;1.63;;;6.30;99.90;;;;;;5055113;28;20460;-65
2022/01/09 13:03:25;;;;;;;4.40;1.30;;;6.20;99.90;;;;;;5063910;28;20442;-64
2022/01/09 13:05:54;;;;;;;6.20;1.93;;;6.30;99.90;;;;;;5061443;28;20942;-65
2022/01/09 13:08:21;;;;;;;4.83;1.20;;;6.30;99.90;;;;;;5045830;28;20471;-65
2022/01/09 13:10:57;;;;;;;3.43;1.73;;;6.40;99.90;;;;;;5045311;28;20451;-65
2022/01/09 13:13:26;;;;;;;3.40;1.20;;;6.30;99.90;;;;;;5049712;28;20484;-64